createdAt,value
2022-08-11T00:04:37.968Z,100.00
2022-08-11T00:09:42.197Z,100.00
2022-08-11T00:14:45.742Z,100.00
2022-08-11T00:20:11.787Z,100.00
2022-08-11T00:25:16.737Z,100.00
2022-08-11T00:30:19.679Z,100.00
2022-08-11T00:35:51.587Z,100.00
2022-08-11T00:40:56.767Z,100.00
2022-08-11T00:46:11.879Z,100.00
2022-08-11T00:51:18.790Z,100.00
2022-08-11T00:56:49.856Z,100.00
2022-08-11T01:02:07.036Z,100.00
2022-08-11T01:08:00.433Z,100.00
2022-08-11T01:13:11.103Z,100.00
2022-08-11T01:18:55.589Z,100.00
2022-08-11T01:24:37.276Z,100.00
2022-08-11T01:30:08.746Z,100.00
2022-08-11T01:35:32.333Z,100.00
2022-08-11T01:40:57.534Z,100.00
2022-08-11T01:46:03.520Z,100.00
2022-08-11T01:51:21.635Z,100.00
2022-08-11T01:56:34.321Z,100.00
2022-08-11T02:01:50.634Z,100.00
2022-08-11T02:07:02.612Z,100.00
2022-08-11T02:12:17.781Z,100.00
2022-08-11T02:17:22.149Z,100.00
2022-08-11T02:22:50.421Z,100.00
2022-08-11T02:27:56.997Z,100.00
2022-08-11T02:33:20.158Z,100.00
2022-08-11T02:38:30.710Z,100.00
2022-08-11T02:43:47.295Z,100.00
2022-08-11T02:49:45.715Z,100.00
2022-08-11T02:55:48.735Z,100.00
2022-08-11T03:00:53.597Z,100.00
2022-08-11T03:06:06.927Z,100.00
2022-08-11T03:11:33.104Z,100.00
2022-08-11T03:16:48.337Z,100.00
2022-08-11T03:22:02.949Z,100.00
2022-08-11T03:27:10.967Z,100.00
2022-08-11T03:32:25.974Z,100.00
2022-08-11T03:37:52.789Z,100.00
2022-08-11T03:42:59.564Z,100.00
2022-08-11T03:48:10.518Z,100.00
2022-08-11T03:53:18.482Z,100.00
2022-08-11T03:58:38.224Z,100.00
2022-08-11T04:04:00.718Z,100.00
2022-08-11T04:09:25.125Z,100.00
2022-08-11T04:15:04.165Z,100.00
2022-08-11T04:20:31.231Z,100.00
2022-08-11T04:25:51.064Z,100.00
2022-08-11T04:31:12.251Z,100.00
2022-08-11T04:36:50.662Z,100.00
2022-08-11T04:42:50.974Z,100.00
2022-08-11T04:48:25.596Z,100.00
2022-08-11T04:53:54.845Z,100.00
2022-08-11T04:59:56.755Z,100.00
2022-08-11T05:05:34.592Z,100.00
2022-08-11T05:10:53.153Z,100.00
2022-08-11T05:16:15.050Z,100.00
2022-08-11T05:21:45.121Z,100.00
2022-08-11T05:27:12.903Z,100.00
2022-08-11T05:32:35.202Z,100.00
2022-08-11T05:37:58.085Z,100.00
2022-08-11T05:43:21.288Z,100.00
2022-08-11T05:48:41.984Z,100.00
2022-08-11T05:54:28.705Z,100.00
2022-08-11T05:59:30.792Z,100.00
2022-08-11T06:04:33.888Z,100.00
2022-08-11T06:09:39.438Z,100.00
2022-08-11T06:14:44.326Z,100.00
2022-08-11T06:19:48.910Z,100.00
2022-08-11T06:24:56.310Z,100.00
2022-08-11T06:29:59.875Z,100.00
2022-08-11T06:35:13.160Z,100.00
2022-08-11T06:40:28.364Z,100.00
2022-08-11T06:45:34.429Z,100.00
2022-08-11T06:50:55.247Z,100.00
2022-08-11T06:56:17.573Z,100.00
2022-08-11T07:01:33.004Z,100.00
2022-08-11T07:07:09.103Z,100.00
2022-08-11T07:12:57.736Z,100.00
2022-08-11T07:18:22.308Z,100.00
2022-08-11T07:23:48.346Z,100.00
2022-08-11T07:28:59.098Z,100.00
2022-08-11T07:34:12.208Z,100.00
2022-08-11T07:39:22.000Z,100.00
2022-08-11T07:44:34.414Z,100.00
2022-08-11T07:49:57.145Z,100.00
2022-08-11T07:55:01.507Z,100.00
2022-08-11T08:00:29.864Z,100.00
2022-08-11T08:05:52.019Z,100.00
2022-08-11T08:11:14.024Z,100.00
2022-08-11T08:16:35.725Z,100.00
2022-08-11T08:21:39.831Z,100.00
2022-08-11T08:26:59.541Z,100.00
2022-08-11T08:32:04.021Z,100.00
2022-08-11T08:37:16.215Z,100.00
2022-08-11T08:42:32.059Z,100.00
2022-08-11T08:47:42.881Z,100.00
2022-08-11T08:52:50.596Z,100.00
2022-08-11T08:57:55.670Z,100.00
2022-08-11T09:03:08.482Z,100.00
2022-08-11T09:08:21.661Z,100.00
2022-08-11T09:13:24.356Z,100.00
2022-08-11T09:18:33.532Z,100.00
2022-08-11T09:24:17.066Z,100.00
2022-08-11T09:29:17.952Z,100.00
2022-08-11T09:34:22.636Z,100.00
2022-08-11T09:39:43.696Z,84.73
2022-08-11T09:44:50.036Z,91.30
2022-08-11T09:50:00.447Z,87.73
2022-08-11T09:55:11.116Z,88.21
2022-08-11T10:00:15.903Z,72.25
2022-08-11T10:05:43.267Z,69.81
2022-08-11T10:10:46.985Z,74.21
2022-08-11T10:16:00.058Z,73.06
2022-08-11T10:21:28.180Z,69.12
2022-08-11T10:26:54.155Z,69.19
2022-08-11T10:32:15.694Z,67.14
2022-08-11T10:37:22.155Z,65.14
2022-08-11T10:42:57.103Z,65.23
2022-08-11T10:48:01.095Z,64.71
2022-08-11T10:53:22.997Z,61.27
2022-08-11T10:58:43.429Z,60.61
2022-08-11T11:03:46.751Z,59.44
2022-08-11T11:08:55.526Z,59.83
2022-08-11T11:14:20.860Z,56.17
2022-08-11T11:19:30.379Z,53.98
2022-08-11T11:24:43.739Z,54.59
2022-08-11T11:29:55.987Z,53.61
2022-08-11T11:35:28.043Z,54.76
2022-08-11T11:40:32.417Z,56.10
2022-08-11T11:45:35.648Z,51.29
2022-08-11T11:50:39.258Z,52.40
2022-08-11T11:55:43.763Z,50.21
2022-08-11T12:01:04.409Z,49.85
2022-08-11T12:06:08.789Z,49.82
2022-08-11T12:11:31.087Z,47.82
2022-08-11T12:16:36.781Z,45.51
2022-08-11T12:22:02.945Z,47.47
2022-08-11T12:27:25.221Z,48.12
2022-08-11T12:32:30.366Z,49.69
2022-08-11T12:37:34.829Z,45.95
2022-08-11T12:42:57.653Z,45.91
2022-08-11T12:48:59.078Z,45.73
2022-08-11T12:53:55.260Z,45.25
2022-08-11T12:59:17.887Z,44.79
2022-08-11T13:04:38.624Z,43.68
2022-08-11T13:09:41.974Z,43.58
2022-08-11T13:14:46.207Z,41.48
2022-08-11T13:19:49.795Z,41.69
2022-08-11T13:24:55.208Z,41.44
2022-08-11T13:30:13.865Z,40.92
2022-08-11T13:35:17.239Z,40.56
2022-08-11T13:40:33.316Z,41.18
2022-08-11T13:45:47.571Z,43.08
2022-08-11T13:51:07.647Z,43.01
2022-08-11T13:56:10.466Z,42.53
2022-08-11T14:02:20.730Z,43.90
2022-08-11T14:06:38.737Z,44.16
2022-08-11T14:12:21.150Z,44.03
2022-08-11T14:17:48.385Z,41.72
2022-08-11T14:22:47.858Z,42.49
2022-08-11T14:28:35.230Z,43.82
2022-08-11T14:33:17.290Z,44.09
2022-08-11T14:38:23.407Z,43.51
2022-08-11T14:44:12.532Z,43.49
2022-08-11T14:49:08.549Z,44.74
2022-08-11T14:54:29.406Z,44.09
2022-08-11T14:59:33.558Z,44.48
2022-08-11T15:04:38.140Z,44.16
2022-08-11T15:10:09.870Z,44.30
2022-08-11T15:15:25.575Z,44.83
2022-08-11T15:20:48.204Z,44.08
2022-08-11T15:25:58.995Z,46.01
2022-08-11T15:31:20.718Z,46.24
2022-08-11T15:36:42.814Z,45.72
2022-08-11T15:42:07.986Z,45.27
2022-08-11T15:47:10.743Z,44.60
2022-08-11T15:52:19.384Z,44.48
2022-08-11T15:57:39.779Z,43.91
2022-08-11T16:03:01.898Z,43.73
2022-08-11T16:08:06.336Z,44.37
2022-08-11T16:13:29.861Z,43.53
2022-08-11T16:18:41.487Z,42.93
2022-08-11T16:23:48.142Z,44.62
2022-08-11T16:28:52.354Z,45.03
2022-08-11T16:33:55.688Z,44.74
2022-08-11T16:39:00.702Z,45.21
2022-08-11T16:44:36.810Z,45.43
2022-08-11T16:49:47.200Z,46.57
2022-08-11T16:54:56.963Z,47.22
2022-08-11T17:00:06.158Z,46.55
2022-08-11T17:05:29.615Z,47.88
2022-08-11T17:11:00.190Z,47.67
2022-08-11T17:16:12.546Z,47.97
2022-08-11T17:21:19.984Z,47.19
2022-08-11T17:26:51.465Z,48.81
2022-08-11T17:32:13.141Z,50.16
2022-08-11T17:37:17.109Z,50.14
2022-08-11T17:42:39.432Z,51.40
2022-08-11T17:47:59.796Z,52.88
2022-08-11T17:53:20.639Z,52.89
2022-08-11T17:58:43.334Z,54.30
2022-08-11T18:03:57.309Z,54.71
2022-08-11T18:09:20.298Z,55.47
2022-08-11T18:14:42.494Z,56.61
2022-08-11T18:20:02.852Z,57.45
2022-08-11T18:25:29.874Z,58.36
2022-08-11T18:31:03.975Z,59.37
2022-08-11T18:36:26.138Z,60.63
2022-08-11T18:41:47.884Z,61.37
2022-08-11T18:47:09.867Z,62.17
2022-08-11T18:52:33.065Z,62.67
2022-08-11T18:57:55.184Z,63.87
2022-08-11T19:03:16.817Z,64.83
2022-08-11T19:08:37.894Z,65.75
2022-08-11T19:13:58.273Z,67.08
2022-08-11T19:19:20.358Z,67.67
2022-08-11T19:24:41.261Z,69.42
2022-08-11T19:30:13.230Z,70.17
2022-08-11T19:35:36.298Z,71.09
2022-08-11T19:40:57.550Z,71.82
2022-08-11T19:46:19.369Z,71.05
2022-08-11T19:51:42.465Z,70.13
2022-08-11T19:57:03.280Z,70.96
2022-08-11T20:02:24.109Z,70.29
2022-08-11T20:07:46.578Z,70.21
2022-08-11T20:13:07.337Z,71.13
2022-08-11T20:18:29.816Z,72.75
2022-08-11T20:23:51.741Z,72.82
2022-08-11T20:29:13.362Z,74.11
2022-08-11T20:34:36.271Z,74.88
2022-08-11T20:39:59.025Z,75.74
2022-08-11T20:45:23.586Z,76.65
2022-08-11T20:50:45.987Z,77.77
2022-08-11T20:56:08.267Z,79.08
2022-08-11T21:01:38.934Z,79.58
2022-08-11T21:07:02.077Z,80.69
2022-08-11T21:12:24.537Z,81.33
2022-08-11T21:18:00.624Z,81.47
2022-08-11T21:23:29.435Z,82.01
2022-08-11T21:28:52.359Z,83.56
2022-08-11T21:34:13.213Z,83.54
2022-08-11T21:39:36.327Z,86.15
2022-08-11T21:44:58.202Z,87.06
2022-08-11T21:50:18.346Z,89.57
2022-08-11T21:55:38.948Z,90.65
2022-08-11T22:01:00.956Z,89.83
2022-08-11T22:06:21.512Z,89.98
2022-08-11T22:11:41.927Z,90.21
2022-08-11T22:17:03.197Z,92.91
2022-08-11T22:22:35.305Z,95.20
2022-08-11T22:28:04.495Z,96.15
2022-08-11T22:33:28.851Z,97.49
2022-08-11T22:38:50.243Z,99.85
2022-08-11T22:44:10.353Z,100.00
2022-08-11T22:49:56.982Z,100.00
2022-08-11T22:55:13.775Z,100.00
2022-08-11T23:00:34.893Z,100.00
2022-08-11T23:05:56.904Z,100.00
2022-08-11T23:11:17.056Z,100.00
2022-08-11T23:16:37.422Z,100.00
2022-08-11T23:21:59.405Z,100.00
2022-08-11T23:27:21.116Z,100.00
2022-08-11T23:32:42.603Z,100.00
2022-08-11T23:38:04.296Z,100.00
2022-08-11T23:43:24.525Z,100.00
2022-08-11T23:48:46.657Z,100.00
2022-08-11T23:54:08.837Z,100.00
2022-08-11T23:59:29.378Z,100.00
